Time;durP1;ratioP1;P1;durP2;ratioP2;P2;SDS_P1;SDS_P2;PMS_P1;PMS_P2;Temp;Humidity;BMP_temperature;BMP_pressure;BME280_temperature;BME280_humidity;BME280_pressure;Samples;Min_cycle;Max_cycle;Signal;HPM_P1;HPM_P2
2023/08/04 00:00:55;;;;;;;0.43;0.43;;;17.50;81.30;;;;;;5041353;28;20112;-62
2023/08/04 00:03:21;;;;;;;0.73;0.57;;;17.40;81.30;;;;;;5051676;28;20112;-62
2023/08/04 00:05:46;;;;;;;1.45;0.50;;;17.40;81.40;;;;;;5052087;28;20090;-62
2023/08/04 00:08:12;;;;;;;0.88;0.60;;;17.40;81.40;;;;;;5048500;28;20033;-62
2023/08/04 00:10:38;;;;;;;5.95;0.90;;;17.40;81.40;;;;;;5053171;28;20029;-63
2023/08/04 00:13:03;;;;;;;0.70;0.70;;;17.40;81.50;;;;;;5055327;28;20442;-64
2023/08/04 00:15:29;;;;;;;2.63;0.77;;;17.40;81.50;;;;;;5056592;28;20458;-64
2023/08/04 00:17:56;;;;;;;1.13;0.75;;;17.40;81.50;;;;;;5062464;28;20120;-64
2023/08/04 00:20:22;;;;;;;1.13;1.02;;;17.40;81.60;;;;;;5056335;28;20115;-64
2023/08/04 00:22:47;;;;;;;2.13;1.02;;;17.30;81.70;;;;;;5055428;28;20124;-64
2023/08/04 00:25:13;;;;;;;0.85;0.65;;;17.40;81.90;;;;;;5055540;28;20021;-64
2023/08/04 00:27:39;;;;;;;3.97;0.70;;;17.40;81.90;;;;;;5053548;28;20041;-64
2023/08/04 00:30:05;;;;;;;1.20;0.93;;;17.40;82.00;;;;;;5054584;28;20047;-64
2023/08/04 00:32:31;;;;;;;0.77;0.60;;;17.40;82.10;;;;;;5052736;28;20459;-62
2023/08/04 00:34:57;;;;;;;1.80;0.60;;;17.50;82.20;;;;;;5063874;28;20028;-63
2023/08/04 00:37:23;;;;;;;1.15;0.70;;;17.50;82.30;;;;;;5054313;28;20037;-61
2023/08/04 00:39:48;;;;;;;4.90;1.25;;;17.50;82.80;;;;;;5056005;28;20078;-62
2023/08/04 00:42:14;;;;;;;1.30;0.88;;;17.60;82.20;;;;;;5058560;28;20125;-60
2023/08/04 00:44:40;;;;;;;2.30;1.38;;;17.60;82.20;;;;;;5059427;28;20107;-60
2023/08/04 00:47:06;;;;;;;1.55;0.60;;;17.60;82.30;;;;;;5060986;28;20036;-63
2023/08/04 00:49:32;;;;;;;3.88;1.00;;;17.60;82.50;;;;;;5062683;28;20108;-62
2023/08/04 00:51:58;;;;;;;4.35;1.13;;;17.60;82.70;;;;;;5054538;28;20333;-62
2023/08/04 00:54:24;;;;;;;1.00;0.80;;;17.50;82.60;;;;;;5057675;28;20033;-62
2023/08/04 00:56:52;;;;;;;1.13;0.80;;;17.50;82.70;;;;;;5043241;28;20068;-62
2023/08/04 00:59:18;;;;;;;1.27;1.15;;;17.50;82.70;;;;;;5056176;28;20032;-61
2023/08/04 01:01:43;;;;;;;1.40;0.65;;;17.50;82.60;;;;;;5058092;28;20084;-61
2023/08/04 01:04:09;;;;;;;4.43;0.82;;;17.60;82.70;;;;;;5060825;28;20029;-61
2023/08/04 01:06:43;;;;;;;1.27;0.80;;;17.50;82.50;;;;;;5051610;28;20029;-64
2023/08/04 01:09:38;;;;;;;1.40;0.70;;;17.50;82.60;;;;;;5050158;28;20033;-62
2023/08/04 01:12:22;;;;;;;1.33;0.75;;;17.60;82.40;;;;;;5052215;28;20029;-61
2023/08/04 01:14:51;;;;;;;2.10;0.80;;;17.50;82.40;;;;;;5049863;28;20032;-63
2023/08/04 01:17:28;;;;;;;3.25;0.68;;;17.50;82.40;;;;;;5049398;28;20037;-64
2023/08/04 01:19:55;;;;;;;0.75;0.73;;;17.50;82.50;;;;;;5053793;28;20116;-62
2023/08/04 01:22:22;;;;;;;0.47;0.40;;;17.40;82.50;;;;;;5052171;28;20025;-61
2023/08/04 01:24:48;;;;;;;1.77;0.93;;;17.40;82.50;;;;;;5052206;28;20062;-62
2023/08/04 01:27:21;;;;;;;2.95;0.70;;;17.40;83.20;;;;;;5049611;28;20031;-61
2023/08/04 01:29:47;;;;;;;2.17;0.60;;;17.50;82.60;;;;;;5049479;28;20022;-61
2023/08/04 01:32:13;;;;;;;0.77;0.50;;;17.50;82.70;;;;;;5047741;28;20041;-61
2023/08/04 01:34:41;;;;;;;0.75;0.52;;;17.50;82.70;;;;;;5043116;28;20033;-63
2023/08/04 01:37:08;;;;;;;1.17;0.80;;;17.50;82.70;;;;;;5050552;28;20065;-63
2023/08/04 01:39:36;;;;;;;2.42;1.05;;;17.50;82.70;;;;;;5053398;28;20037;-61
2023/08/04 01:42:02;;;;;;;0.52;0.52;;;17.60;82.80;;;;;;5051241;28;20021;-63
2023/08/04 01:44:27;;;;;;;1.17;0.80;;;17.60;82.80;;;;;;5028656;28;20042;-63
2023/08/04 01:46:53;;;;;;;0.80;0.77;;;17.60;82.80;;;;;;5052067;28;20049;-62
2023/08/04 01:49:18;;;;;;;0.95;0.75;;;17.60;82.90;;;;;;5050549;28;20056;-63
2023/08/04 01:51:44;;;;;;;5.47;1.23;;;17.60;82.90;;;;;;5052499;28;20361;-63
2023/08/04 01:54:10;;;;;;;1.27;1.05;;;17.60;82.90;;;;;;5055583;28;20479;-64
2023/08/04 01:56:35;;;;;;;1.00;0.90;;;17.60;83.00;;;;;;5056703;28;20126;-63
2023/08/04 01:59:01;;;;;;;1.27;0.88;;;17.60;83.10;;;;;;5050801;28;20395;-61
2023/08/04 02:01:27;;;;;;;0.70;0.60;;;17.60;83.10;;;;;;5052136;28;20079;-63
2023/08/04 02:03:52;;;;;;;2.40;0.95;;;17.60;83.10;;;;;;5046956;28;20029;-61
2023/08/04 02:06:18;;;;;;;0.55;0.55;;;17.60;83.10;;;;;;5049999;28;20029;-62
2023/08/04 02:08:44;;;;;;;1.70;1.25;;;17.60;83.30;;;;;;5049217;28;20423;-63
2023/08/04 02:11:09;;;;;;;1.92;0.90;;;17.60;83.40;;;;;;5048971;28;20040;-63
2023/08/04 02:13:35;;;;;;;0.93;0.70;;;17.60;83.50;;;;;;5030213;28;20040;-63
2023/08/04 02:16:00;;;;;;;1.58;0.98;;;17.60;83.50;;;;;;5044681;28;20025;-63
2023/08/04 02:18:26;;;;;;;1.20;0.80;;;17.60;83.50;;;;;;5051864;28;20060;-63
2023/08/04 02:20:52;;;;;;;0.82;0.80;;;17.60;83.50;;;;;;5058096;28;20036;-63
2023/08/04 02:23:17;;;;;;;2.90;1.00;;;17.60;83.50;;;;;;5050211;28;20111;-63
2023/08/04 02:25:43;;;;;;;1.00;0.70;;;17.60;83.50;;;;;;5055121;28;20503;-63
2023/08/04 02:28:09;;;;;;;1.45;0.80;;;17.60;83.50;;;;;;5054997;28;20368;-63
2023/08/04 02:30:34;;;;;;;0.57;0.50;;;17.60;83.50;;;;;;5052529;28;20052;-63
2023/08/04 02:33:00;;;;;;;2.10;0.77;;;17.70;83.50;;;;;;5054688;28;20407;-63
2023/08/04 02:35:26;;;;;;;0.70;0.70;;;17.70;83.50;;;;;;5057072;28;20041;-63
2023/08/04 02:37:51;;;;;;;1.13;1.02;;;17.70;83.40;;;;;;5044080;28;20130;-63
2023/08/04 02:40:17;;;;;;;1.67;1.40;;;17.70;83.40;;;;;;5043508;28;20419;-63
2023/08/04 02:42:42;;;;;;;1.90;1.30;;;17.60;83.50;;;;;;5057156;28;20028;-63
2023/08/04 02:45:09;;;;;;;4.63;1.00;;;17.60;83.60;;;;;;5053227;28;20025;-61
2023/08/04 02:47:36;;;;;;;2.30;1.42;;;17.60;83.60;;;;;;5054416;28;20028;-61
2023/08/04 02:50:04;;;;;;;1.30;0.95;;;17.60;83.80;;;;;;5054550;28;20032;-63
2023/08/04 02:52:30;;;;;;;1.25;0.75;;;17.60;83.90;;;;;;5052299;28;20032;-64
2023/08/04 02:54:55;;;;;;;1.25;0.90;;;17.60;83.80;;;;;;5055736;28;20052;-61
2023/08/04 02:57:21;;;;;;;1.20;1.10;;;17.60;83.80;;;;;;5047050;28;20916;-61
2023/08/04 02:59:46;;;;;;;2.70;0.80;;;17.60;83.90;;;;;;5050982;28;20060;-63
2023/08/04 03:02:12;;;;;;;1.85;0.98;;;17.60;83.80;;;;;;5053725;28;20041;-63
2023/08/04 03:04:39;;;;;;;2.97;2.22;;;17.60;83.90;;;;;;5051869;28;20036;-61
2023/08/04 03:07:05;;;;;;;0.80;0.70;;;17.60;83.90;;;;;;5045419;28;20061;-61
2023/08/04 03:09:31;;;;;;;2.08;0.70;;;17.50;83.70;;;;;;5057246;28;20031;-61
2023/08/04 03:11:57;;;;;;;4.32;1.60;;;17.50;83.80;;;;;;5048535;28;20040;-61
2023/08/04 03:14:23;;;;;;;0.98;0.88;;;17.50;83.90;;;;;;5050356;28;20029;-61
2023/08/04 03:16:50;;;;;;;1.48;0.93;;;17.50;83.90;;;;;;5052775;28;20086;-61
2023/08/04 03:19:17;;;;;;;2.88;1.20;;;17.50;83.90;;;;;;5053224;28;20045;-61
2023/08/04 03:21:43;;;;;;;1.23;0.85;;;17.50;84.00;;;;;;5052129;28;20032;-61
2023/08/04 03:24:09;;;;;;;3.67;1.23;;;17.50;83.90;;;;;;5040624;28;20469;-61
2023/08/04 03:26:35;;;;;;;6.03;1.40;;;17.50;84.00;;;;;;5040842;28;20033;-62
2023/08/04 03:29:00;;;;;;;2.60;1.27;;;17.50;84.00;;;;;;5046287;28;20032;-63
2023/08/04 03:31:26;;;;;;;3.33;1.15;;;17.50;84.10;;;;;;5043866;28;20044;-63
2023/08/04 03:33:52;;;;;;;1.52;0.90;;;17.60;84.10;;;;;;5052764;28;20044;-63
2023/08/04 03:36:18;;;;;;;1.30;0.73;;;17.60;84.10;;;;;;5044063;28;20744;-63
2023/08/04 03:38:43;;;;;;;0.85;0.82;;;17.60;84.10;;;;;;5039731;28;20034;-62
2023/08/04 03:41:09;;;;;;;2.72;1.25;;;17.60;84.00;;;;;;5049721;28;20503;-60
2023/08/04 03:43:34;;;;;;;1.92;0.90;;;17.60;84.00;;;;;;5050738;28;20032;-60
2023/08/04 03:46:00;;;;;;;1.20;1.08;;;17.60;84.00;;;;;;5048861;28;20029;-61
2023/08/04 03:48:26;;;;;;;4.13;1.40;;;17.60;84.10;;;;;;5047481;28;20044;-60
2023/08/04 03:50:51;;;;;;;0.95;0.85;;;17.60;84.00;;;;;;5039327;28;20040;-60
2023/08/04 03:53:17;;;;;;;3.33;1.67;;;17.60;84.10;;;;;;5059020;28;20025;-62
2023/08/04 03:55:43;;;;;;;2.78;1.35;;;17.60;84.70;;;;;;5055787;28;20045;-62
2023/08/04 03:58:08;;;;;;;3.67;1.42;;;17.60;84.80;;;;;;5048333;28;20033;-60
2023/08/04 04:00:35;;;;;;;2.13;0.93;;;17.60;84.20;;;;;;5048190;28;20065;-60
2023/08/04 04:03:01;;;;;;;2.05;1.05;;;17.60;84.20;;;;;;5049273;28;20025;-60
2023/08/04 04:05:26;;;;;;;2.22;1.58;;;17.60;84.20;;;;;;5050088;28;20025;-62
2023/08/04 04:07:52;;;;;;;0.73;0.65;;;17.60;84.20;;;;;;5046121;28;20546;-60
2023/08/04 04:10:18;;;;;;;1.40;0.98;;;17.60;84.20;;;;;;5049270;28;20436;-60
2023/08/04 04:12:43;;;;;;;3.53;1.85;;;17.60;84.10;;;;;;5052079;28;20036;-61
2023/08/04 04:15:09;;;;;;;1.13;1.05;;;17.60;84.30;;;;;;5042514;28;20056;-61
2023/08/04 04:17:36;;;;;;;2.30;1.20;;;17.60;84.30;;;;;;5052584;28;20120;-61
2023/08/04 04:20:02;;;;;;;2.83;1.00;;;17.60;84.40;;;;;;5041694;28;20025;-61
2023/08/04 04:22:30;;;;;;;1.88;1.00;;;17.60;84.40;;;;;;5049162;28;20025;-63
2023/08/04 04:24:56;;;;;;;3.22;0.98;;;17.60;84.50;;;;;;5049612;28;20033;-63
2023/08/04 04:27:22;;;;;;;1.83;1.02;;;17.60;85.00;;;;;;5046860;28;20037;-63
2023/08/04 04:29:47;;;;;;;1.73;1.23;;;17.60;84.30;;;;;;5050609;28;20079;-63
2023/08/04 04:32:13;;;;;;;5.47;1.35;;;17.60;84.40;;;;;;5042530;28;20131;-63
2023/08/04 04:34:40;;;;;;;1.10;0.80;;;17.60;85.00;;;;;;5047720;28;20025;-63
2023/08/04 04:37:05;;;;;;;2.28;1.00;;;17.60;84.40;;;;;;5048450;28;20033;-61
2023/08/04 04:39:31;;;;;;;2.17;1.33;;;17.70;84.30;;;;;;5039264;28;20075;-63
2023/08/04 04:41:57;;;;;;;1.52;0.93;;;17.60;84.30;;;;;;5043929;28;20030;-63
2023/08/04 04:44:22;;;;;;;1.92;1.23;;;17.60;84.30;;;;;;5045438;28;20025;-61
2023/08/04 04:46:48;;;;;;;1.30;0.90;;;17.60;84.30;;;;;;5045928;28;20086;-63
2023/08/04 04:49:16;;;;;;;1.55;0.90;;;17.60;84.40;;;;;;5053381;28;20142;-63
2023/08/04 04:51:42;;;;;;;4.03;1.35;;;17.70;84.40;;;;;;5045868;28;20083;-63
2023/08/04 04:54:08;;;;;;;2.42;1.38;;;17.70;84.40;;;;;;5050390;28;20057;-63
2023/08/04 04:56:33;;;;;;;1.88;1.48;;;17.70;84.50;;;;;;5060855;28;20037;-63
2023/08/04 04:58:59;;;;;;;2.45;1.15;;;17.70;84.50;;;;;;5050112;28;20530;-63
2023/08/04 05:01:25;;;;;;;1.50;1.23;;;17.70;84.60;;;;;;5057815;28;20473;-63
2023/08/04 05:03:50;;;;;;;1.67;0.73;;;17.70;84.50;;;;;;5053812;28;20025;-63
2023/08/04 05:06:16;;;;;;;3.03;1.10;;;17.80;84.50;;;;;;5052418;28;20037;-63
2023/08/04 05:08:42;;;;;;;1.30;0.88;;;17.80;84.60;;;;;;5057429;28;20024;-63
2023/08/04 05:11:08;;;;;;;1.42;0.90;;;17.80;84.60;;;;;;5037426;28;20476;-63
2023/08/04 05:13:33;;;;;;;0.73;0.73;;;17.70;84.60;;;;;;5053044;28;20061;-63
2023/08/04 05:15:59;;;;;;;0.57;0.50;;;17.80;85.20;;;;;;5049056;28;20427;-63
2023/08/04 05:18:25;;;;;;;1.48;0.68;;;17.80;84.60;;;;;;5054114;28;20045;-64
2023/08/04 05:20:50;;;;;;;1.67;1.10;;;17.80;84.60;;;;;;5045710;28;20034;-63
2023/08/04 05:23:16;;;;;;;1.65;1.05;;;17.80;84.70;;;;;;5046809;28;20488;-63
2023/08/04 05:25:43;;;;;;;1.98;1.48;;;17.80;84.70;;;;;;5058931;28;20033;-61
2023/08/04 05:28:30;;;;;;;0.98;0.77;;;17.80;84.70;;;;;;5049551;28;20162;-61
2023/08/04 05:31:03;;;;;;;1.48;0.85;;;17.80;84.70;;;;;;5046779;28;20107;-63
2023/08/04 05:33:30;;;;;;;1.38;0.90;;;17.90;84.80;;;;;;5054253;28;20047;-63
2023/08/04 05:35:56;;;;;;;0.80;0.80;;;17.90;84.70;;;;;;5049807;28;20396;-63
2023/08/04 05:38:22;;;;;;;0.88;0.68;;;17.90;84.70;;;;;;5047864;28;20344;-63
2023/08/04 05:40:49;;;;;;;1.05;1.00;;;17.90;84.50;;;;;;5050766;28;20033;-61
2023/08/04 05:43:16;;;;;;;1.77;0.93;;;17.90;85.00;;;;;;5051005;28;20025;-61
2023/08/04 05:45:45;;;;;;;0.85;0.80;;;17.90;84.30;;;;;;5045797;28;20483;-60
2023/08/04 05:48:11;;;;;;;1.58;0.70;;;17.90;84.20;;;;;;5076573;28;20387;-63
2023/08/04 05:50:37;;;;;;;0.65;0.45;;;18.00;84.10;;;;;;5054196;28;20078;-63
2023/08/04 05:53:03;;;;;;;0.40;0.35;;;18.00;83.80;;;;;;5053025;28;20021;-63
2023/08/04 05:55:29;;;;;;;3.75;1.15;;;18.00;83.80;;;;;;5054462;28;20041;-62
2023/08/04 05:57:56;;;;;;;0.47;0.47;;;18.00;83.70;;;;;;5052681;28;20056;-62
2023/08/04 06:00:22;;;;;;;0.50;0.40;;;18.10;83.70;;;;;;5046991;28;20460;-62
2023/08/04 06:02:47;;;;;;;0.50;0.40;;;18.10;83.60;;;;;;5049554;28;20373;-64
2023/08/04 06:05:13;;;;;;;0.77;0.50;;;18.10;83.50;;;;;;5057020;28;20044;-62
2023/08/04 06:07:42;;;;;;;0.63;0.50;;;18.20;83.40;;;;;;5047464;28;20025;-62
2023/08/04 06:10:08;;;;;;;0.40;0.40;;;18.20;83.30;;;;;;5051350;28;20486;-62
2023/08/04 06:12:35;;;;;;;0.60;0.60;;;18.30;83.30;;;;;;5056494;28;20344;-64
2023/08/04 06:15:01;;;;;;;1.02;0.68;;;18.30;83.20;;;;;;5049397;28;20035;-64
2023/08/04 06:17:27;;;;;;;2.05;0.40;;;18.30;83.10;;;;;;5048265;28;20083;-62
2023/08/04 06:19:52;;;;;;;2.05;0.70;;;18.30;83.10;;;;;;5052361;28;20109;-62
2023/08/04 06:22:18;;;;;;;0.93;0.60;;;18.40;83.10;;;;;;5048499;28;20392;-62
2023/08/04 06:24:44;;;;;;;1.50;0.80;;;18.40;83.10;;;;;;5051708;28;20025;-64
2023/08/04 06:27:09;;;;;;;0.82;0.70;;;18.50;83.10;;;;;;5050667;28;20044;-63
2023/08/04 06:29:35;;;;;;;4.40;1.13;;;18.60;83.00;;;;;;5044110;28;20039;-64
2023/08/04 06:32:01;;;;;;;0.70;0.40;;;18.60;82.70;;;;;;5051748;28;20119;-62
2023/08/04 06:34:27;;;;;;;0.73;0.65;;;18.60;82.60;;;;;;5048316;28;20078;-62
2023/08/04 06:36:53;;;;;;;1.17;0.60;;;18.70;82.70;;;;;;5053890;28;20190;-62
2023/08/04 06:39:19;;;;;;;0.80;0.75;;;18.70;82.60;;;;;;5042556;28;20125;-64
2023/08/04 06:41:44;;;;;;;1.70;0.73;;;18.80;82.60;;;;;;5049267;28;20021;-64
2023/08/04 06:44:13;;;;;;;0.50;0.50;;;18.80;82.60;;;;;;5040731;28;20022;-63
2023/08/04 06:46:38;;;;;;;0.73;0.73;;;18.80;82.50;;;;;;5044416;28;20025;-62
2023/08/04 06:49:04;;;;;;;0.80;0.77;;;18.90;82.30;;;;;;5050639;28;20036;-62
2023/08/04 06:51:30;;;;;;;0.70;0.70;;;18.90;82.30;;;;;;5045780;28;20040;-62
2023/08/04 06:53:55;;;;;;;0.77;0.75;;;19.00;82.20;;;;;;5035419;28;20043;-62
2023/08/04 06:56:22;;;;;;;0.98;0.90;;;19.00;81.90;;;;;;5032920;28;20111;-62
2023/08/04 06:58:47;;;;;;;2.80;0.80;;;19.00;81.90;;;;;;5042047;28;20057;-61
2023/08/04 07:01:14;;;;;;;0.50;0.50;;;19.00;82.00;;;;;;5047173;28;20080;-62
2023/08/04 07:03:40;;;;;;;0.65;0.52;;;19.00;81.90;;;;;;5047452;28;20113;-61
2023/08/04 07:06:06;;;;;;;0.85;0.73;;;19.00;81.90;;;;;;5044108;28;20105;-64
2023/08/04 07:08:31;;;;;;;2.03;0.70;;;19.10;82.00;;;;;;5039222;28;20030;-61
2023/08/04 07:10:57;;;;;;;2.50;0.95;;;19.20;81.40;;;;;;5042785;28;20318;-63
2023/08/04 07:13:22;;;;;;;0.63;0.63;;;19.10;81.60;;;;;;5039383;28;20041;-62
2023/08/04 07:15:58;;;;;;;1.48;0.43;;;19.20;81.70;;;;;;5044989;28;20041;-63
2023/08/04 07:18:24;;;;;;;2.63;0.98;;;19.30;81.60;;;;;;5047278;28;20033;-61
2023/08/04 07:20:50;;;;;;;0.80;0.70;;;19.40;81.50;;;;;;5047749;28;20029;-61
2023/08/04 07:23:15;;;;;;;1.00;0.90;;;19.50;81.20;;;;;;5052915;28;20028;-64
2023/08/04 07:25:41;;;;;;;0.80;0.70;;;19.60;80.90;;;;;;5046131;28;20041;-64
2023/08/04 07:28:07;;;;;;;0.40;0.40;;;19.70;80.80;;;;;;5043569;28;20496;-64
2023/08/04 07:30:32;;;;;;;1.58;0.50;;;19.80;80.70;;;;;;5049508;28;20029;-63
2023/08/04 07:32:58;;;;;;;0.75;0.70;;;19.80;80.30;;;;;;5050308;28;20036;-61
2023/08/04 07:35:24;;;;;;;1.45;0.55;;;19.80;80.40;;;;;;5078813;28;20029;-61
2023/08/04 07:37:50;;;;;;;0.65;0.60;;;19.80;80.40;;;;;;5049150;28;20033;-61
2023/08/04 07:40:16;;;;;;;0.90;0.50;;;19.90;80.30;;;;;;5037732;28;20037;-61
2023/08/04 07:42:42;;;;;;;0.75;0.70;;;20.00;80.30;;;;;;5034860;28;20036;-61
2023/08/04 07:45:08;;;;;;;0.60;0.60;;;20.00;80.10;;;;;;5051115;28;20029;-62
2023/08/04 07:47:34;;;;;;;0.50;0.50;;;20.00;80.20;;;;;;5047028;28;20053;-62
2023/08/04 07:50:00;;;;;;;0.73;0.60;;;20.10;80.30;;;;;;5045662;28;20072;-61
2023/08/04 07:52:26;;;;;;;1.33;0.88;;;20.10;80.10;;;;;;5051999;28;20063;-64
2023/08/04 07:54:52;;;;;;;0.40;0.40;;;20.20;80.00;;;;;;5049336;28;20040;-61
2023/08/04 07:57:18;;;;;;;1.25;0.70;;;20.20;79.70;;;;;;5038972;28;20033;-60
2023/08/04 07:59:43;;;;;;;0.60;0.50;;;20.20;79.80;;;;;;5044224;28;20346;-63
2023/08/04 08:02:09;;;;;;;1.48;0.93;;;20.20;79.70;;;;;;5046691;28;20049;-63
2023/08/04 08:04:35;;;;;;;2.30;1.10;;;20.20;79.70;;;;;;5047068;28;20029;-63
2023/08/04 08:07:00;;;;;;;1.30;0.90;;;20.30;79.70;;;;;;5036040;28;20025;-62
2023/08/04 08:09:26;;;;;;;4.07;1.08;;;20.30;79.40;;;;;;5049670;28;20037;-64
2023/08/04 08:11:52;;;;;;;2.22;1.10;;;20.30;78.90;;;;;;5046277;28;20031;-65
2023/08/04 08:14:18;;;;;;;0.85;0.70;;;20.20;79.00;;;;;;5046817;28;20033;-64
2023/08/04 08:16:44;;;;;;;1.50;0.80;;;20.10;78.90;;;;;;5050919;28;20032;-64
2023/08/04 08:19:09;;;;;;;0.65;0.63;;;20.10;79.20;;;;;;5037865;28;20433;-64
2023/08/04 08:21:36;;;;;;;2.55;0.68;;;20.10;79.40;;;;;;5049829;28;20029;-64
2023/08/04 08:24:01;;;;;;;1.13;0.73;;;20.10;79.60;;;;;;5042229;28;20357;-64
2023/08/04 08:26:27;;;;;;;1.88;0.70;;;20.10;79.60;;;;;;5048201;28;20021;-64
2023/08/04 08:28:53;;;;;;;3.95;1.35;;;20.10;79.80;;;;;;5047678;28;20121;-64
2023/08/04 08:31:19;;;;;;;0.80;0.52;;;20.10;79.80;;;;;;5047555;28;20373;-64
2023/08/04 08:33:44;;;;;;;1.60;0.70;;;20.10;79.80;;;;;;5037893;28;20078;-64
2023/08/04 08:36:10;;;;;;;1.77;1.35;;;20.20;79.90;;;;;;5045581;28;20431;-64
2023/08/04 08:38:36;;;;;;;0.90;0.90;;;20.10;79.80;;;;;;5043130;28;20708;-61
2023/08/04 08:41:02;;;;;;;1.13;0.70;;;20.10;79.90;;;;;;5050244;28;20024;-64
2023/08/04 08:43:28;;;;;;;2.22;0.50;;;20.10;79.90;;;;;;5052026;28;20033;-62
2023/08/04 08:45:55;;;;;;;0.65;0.40;;;20.00;79.90;;;;;;5044776;28;20033;-62
2023/08/04 08:48:21;;;;;;;0.88;0.50;;;20.00;79.90;;;;;;5044245;28;20029;-62
2023/08/04 08:50:58;;;;;;;1.75;0.65;;;19.90;80.10;;;;;;5056059;28;20029;-62
2023/08/04 08:53:28;;;;;;;0.73;0.55;;;19.90;80.10;;;;;;5052848;28;20025;-62
2023/08/04 08:55:54;;;;;;;0.82;0.50;;;20.00;80.10;;;;;;5062256;28;20025;-65
2023/08/04 08:58:19;;;;;;;1.05;0.95;;;20.10;80.00;;;;;;5052647;28;20036;-61
2023/08/04 09:00:45;;;;;;;3.10;1.30;;;20.10;79.90;;;;;;5046191;28;20022;-62
2023/08/04 09:03:11;;;;;;;1.38;0.85;;;20.20;79.80;;;;;;5041827;28;20025;-62
2023/08/04 09:05:37;;;;;;;0.60;0.50;;;20.30;79.60;;;;;;5047231;28;20624;-62
2023/08/04 09:08:03;;;;;;;0.43;0.43;;;20.40;79.40;;;;;;5047560;28;20037;-62
2023/08/04 09:10:28;;;;;;;0.68;0.68;;;20.60;79.20;;;;;;5053159;28;20041;-62
2023/08/04 09:12:58;;;;;;;0.57;0.50;;;20.80;78.80;;;;;;5053926;28;20427;-64
2023/08/04 09:15:35;;;;;;;1.02;0.93;;;21.10;78.20;;;;;;5049513;28;20526;-62
2023/08/04 09:18:06;;;;;;;0.52;0.50;;;21.40;77.30;;;;;;5051187;28;20029;-62
2023/08/04 09:20:31;;;;;;;0.57;0.57;;;21.70;76.70;;;;;;5047460;28;20051;-62
2023/08/04 09:22:57;;;;;;;1.15;0.55;;;21.80;74.50;;;;;;5043043;28;20037;-63
2023/08/04 09:25:23;;;;;;;0.40;0.40;;;21.80;73.90;;;;;;5044576;28;20025;-65
2023/08/04 09:27:52;;;;;;;0.30;0.30;;;21.90;73.10;;;;;;5054468;28;20024;-64
2023/08/04 09:30:18;;;;;;;0.52;0.50;;;21.80;73.40;;;;;;5047952;28;20026;-64
2023/08/04 09:32:47;;;;;;;0.82;0.65;;;21.70;73.50;;;;;;5047383;28;20380;-63
2023/08/04 09:35:13;;;;;;;0.60;0.60;;;21.60;73.60;;;;;;5053322;28;20028;-61
2023/08/04 09:37:39;;;;;;;0.45;0.45;;;21.50;73.30;;;;;;5048517;28;20036;-63
2023/08/04 09:40:12;;;;;;;0.60;0.60;;;21.50;73.80;;;;;;5040575;28;20556;-64
2023/08/04 09:42:39;;;;;;;1.02;0.70;;;21.60;73.40;;;;;;5049547;28;20029;-64
2023/08/04 09:45:05;;;;;;;0.52;0.32;;;21.60;73.10;;;;;;5055640;28;20028;-63
2023/08/04 09:47:31;;;;;;;0.50;0.50;;;21.80;73.00;;;;;;5048203;28;20404;-63
2023/08/04 09:49:57;;;;;;;0.38;0.38;;;22.10;72.60;;;;;;5048301;28;20043;-61
2023/08/04 09:52:27;;;;;;;0.80;0.70;;;22.30;72.20;;;;;;5054578;28;20037;-61
2023/08/04 09:54:54;;;;;;;3.03;0.80;;;22.50;71.80;;;;;;5049994;28;20029;-63
2023/08/04 09:57:24;;;;;;;0.60;0.60;;;22.70;71.80;;;;;;5051670;28;20100;-63
2023/08/04 09:59:50;;;;;;;0.40;0.40;;;22.80;71.30;;;;;;5050261;28;20033;-63
2023/08/04 10:02:20;;;;;;;1.08;0.82;;;22.90;71.30;;;;;;5053051;28;20130;-61
2023/08/04 10:04:50;;;;;;;0.47;0.47;;;23.00;71.10;;;;;;5049965;28;20067;-61
2023/08/04 10:07:20;;;;;;;1.52;0.93;;;23.20;69.90;;;;;;5046626;28;20029;-61
2023/08/04 10:09:47;;;;;;;0.40;0.40;;;23.30;69.90;;;;;;5051463;28;20474;-63
2023/08/04 10:12:14;;;;;;;1.52;0.40;;;23.40;69.60;;;;;;5050712;28;20022;-63
2023/08/04 10:14:41;;;;;;;0.40;0.40;;;23.50;68.90;;;;;;5038477;28;20559;-64
2023/08/04 10:17:07;;;;;;;1.65;0.50;;;23.70;68.70;;;;;;5046629;28;20025;-64
2023/08/04 10:19:34;;;;;;;0.55;0.55;;;23.90;68.20;;;;;;5048924;28;20472;-61
2023/08/04 10:22:08;;;;;;;1.10;0.45;;;24.00;66.70;;;;;;5047882;28;20021;-61
2023/08/04 10:24:40;;;;;;;0.75;0.65;;;24.00;66.30;;;;;;5045203;28;20024;-64
2023/08/04 10:27:26;;;;;;;0.50;0.50;;;23.90;66.50;;;;;;5047154;28;20448;-64
2023/08/04 10:30:22;;;;;;;0.77;0.77;;;23.80;66.30;;;;;;5041653;28;20044;-64
2023/08/04 10:32:48;;;;;;;0.45;0.45;;;23.70;66.30;;;;;;5043014;28;20042;-63
2023/08/04 10:35:19;;;;;;;0.63;0.52;;;23.50;65.50;;;;;;5039924;28;20060;-61
2023/08/04 10:37:48;;;;;;;0.60;0.60;;;23.40;65.00;;;;;;5036174;28;20025;-61
2023/08/04 10:40:25;;;;;;;0.40;0.40;;;23.40;65.20;;;;;;5041697;28;20037;-64
2023/08/04 10:43:04;;;;;;;0.38;0.30;;;23.50;65.70;;;;;;5039233;28;20032;-63
2023/08/04 10:45:53;;;;;;;1.55;0.93;;;23.50;64.30;;;;;;5042793;28;20033;-63
2023/08/04 10:48:20;;;;;;;2.28;0.47;;;23.30;64.90;;;;;;5049186;28;20027;-63
2023/08/04 10:50:50;;;;;;;0.80;0.75;;;23.10;64.70;;;;;;5040425;28;20083;-61
2023/08/04 10:53:16;;;;;;;0.70;0.70;;;23.10;64.90;;;;;;5051251;28;20040;-61
2023/08/04 10:55:54;;;;;;;1.52;0.50;;;23.10;64.20;;;;;;5042849;28;20029;-63
2023/08/04 10:58:20;;;;;;;0.50;0.50;;;23.20;64.40;;;;;;5033653;28;20025;-64
2023/08/04 11:00:46;;;;;;;0.40;0.40;;;23.50;63.60;;;;;;5036616;28;20555;-61
2023/08/04 11:03:23;;;;;;;0.57;0.57;;;23.80;63.60;;;;;;5040365;28;20057;-61
2023/08/04 11:05:50;;;;;;;0.60;0.50;;;24.00;63.40;;;;;;5052645;28;20036;-62
2023/08/04 11:08:18;;;;;;;0.60;0.60;;;24.00;62.80;;;;;;5045795;28;20044;-63
2023/08/04 11:10:52;;;;;;;0.68;0.55;;;23.90;62.40;;;;;;5047730;28;20021;-63
2023/08/04 11:13:19;;;;;;;0.95;0.40;;;23.90;62.50;;;;;;5052700;28;20024;-61
2023/08/04 11:15:46;;;;;;;1.45;0.88;;;23.80;62.30;;;;;;5046148;28;20031;-62
2023/08/04 11:18:14;;;;;;;1.55;0.80;;;23.80;62.70;;;;;;5046259;28;20067;-61
2023/08/04 11:20:41;;;;;;;3.75;0.60;;;23.80;63.20;;;;;;5040252;28;20407;-61
2023/08/04 11:23:10;;;;;;;1.55;0.52;;;23.90;63.00;;;;;;5049205;28;20028;-61
2023/08/04 11:25:37;;;;;;;0.75;0.50;;;24.00;63.00;;;;;;5045237;28;20025;-63
2023/08/04 11:28:03;;;;;;;0.52;0.52;;;24.00;62.60;;;;;;5033817;28;20112;-63
2023/08/04 11:30:29;;;;;;;0.47;0.47;;;24.20;62.60;;;;;;5051708;28;20063;-63
2023/08/04 11:32:54;;;;;;;2.40;0.40;;;24.50;62.00;;;;;;5047882;28;20036;-61
2023/08/04 11:35:20;;;;;;;2.60;0.65;;;24.80;62.20;;;;;;5042579;28;20033;-61
2023/08/04 11:37:46;;;;;;;0.65;0.52;;;25.00;61.20;;;;;;5053151;28;20509;-61
2023/08/04 11:40:22;;;;;;;1.13;0.50;;;24.80;61.50;;;;;;5036070;28;20041;-61
2023/08/04 11:42:48;;;;;;;0.43;0.43;;;24.50;62.40;;;;;;5048861;28;20029;-61
2023/08/04 11:45:14;;;;;;;0.57;0.57;;;24.30;62.80;;;;;;5047384;28;20021;-61
2023/08/04 11:47:40;;;;;;;0.40;0.40;;;24.00;63.20;;;;;;5043928;28;20556;-61
2023/08/04 11:50:08;;;;;;;0.40;0.40;;;23.70;64.10;;;;;;5045171;28;21642;-61
2023/08/04 11:52:37;;;;;;;1.08;0.98;;;23.50;64.50;;;;;;5043275;28;20443;-61
2023/08/04 11:55:05;;;;;;;1.10;0.68;;;23.20;64.90;;;;;;5039733;28;20026;-63
2023/08/04 11:57:31;;;;;;;0.50;0.38;;;22.90;65.40;;;;;;5048249;28;20066;-63
2023/08/04 11:59:57;;;;;;;0.75;0.68;;;22.70;65.80;;;;;;5035019;28;20037;-63
2023/08/04 12:02:23;;;;;;;1.25;0.60;;;22.50;65.50;;;;;;5045008;28;20065;-61
2023/08/04 12:05:05;;;;;;;0.65;0.65;;;22.40;66.00;;;;;;5044778;28;20131;-61
2023/08/04 12:07:32;;;;;;;4.85;0.52;;;22.60;66.30;;;;;;5047870;28;20024;-61
2023/08/04 12:09:57;;;;;;;1.52;0.70;;;22.80;65.70;;;;;;5046328;28;20029;-63
2023/08/04 12:12:37;;;;;;;1.10;0.60;;;23.00;65.40;;;;;;5057597;28;20044;-61
2023/08/04 12:15:04;;;;;;;0.68;0.43;;;23.10;64.70;;;;;;5036689;28;20060;-61
2023/08/04 12:17:37;;;;;;;0.40;0.40;;;23.20;65.00;;;;;;5051617;28;20028;-63
2023/08/04 12:20:04;;;;;;;1.70;0.95;;;23.50;64.60;;;;;;5042581;28;20029;-61
2023/08/04 12:22:33;;;;;;;0.60;0.47;;;23.90;64.20;;;;;;5047474;28;20104;-61
2023/08/04 12:24:59;;;;;;;0.65;0.65;;;24.00;62.60;;;;;;5040681;28;20033;-61
2023/08/04 12:27:24;;;;;;;0.98;0.68;;;24.00;61.10;;;;;;5049984;28;20098;-63
2023/08/04 12:29:50;;;;;;;0.50;0.50;;;23.90;61.40;;;;;;5050412;28;20028;-63
2023/08/04 12:32:15;;;;;;;0.70;0.43;;;24.20;61.90;;;;;;5052561;28;20615;-61
2023/08/04 12:34:41;;;;;;;1.15;0.60;;;24.70;61.70;;;;;;5050890;28;20040;-63
2023/08/04 12:37:07;;;;;;;0.50;0.50;;;25.00;60.40;;;;;;5045674;28;20048;-62
2023/08/04 12:39:32;;;;;;;0.93;0.70;;;25.10;60.00;;;;;;5044076;28;20034;-61
2023/08/04 12:41:58;;;;;;;0.32;0.32;;;25.10;58.40;;;;;;5047911;28;20506;-62
2023/08/04 12:44:24;;;;;;;4.75;0.63;;;25.10;58.40;;;;;;5041278;28;20453;-63
2023/08/04 12:46:49;;;;;;;1.55;0.52;;;25.30;57.70;;;;;;5050648;28;20033;-61